sensor_id;sensor_type;location;lat;lon;timestamp;P1;durP1;ratioP1;P2;durP2;ratioP2
34643;SDS011;26931;43.498;-1.506;2022-11-20T00:01:27;3.55;;;2.30;;
34643;SDS011;26931;43.498;-1.506;2022-11-20T00:03:54;3.58;;;2.58;;
34643;SDS011;26931;43.498;-1.506;2022-11-20T00:06:34;3.83;;;2.42;;
34643;SDS011;26931;43.498;-1.506;2022-11-20T00:09:06;3.80;;;2.63;;
34643;SDS011;26931;43.498;-1.506;2022-11-20T00:11:37;4.82;;;3.00;;
34643;SDS011;26931;43.498;-1.506;2022-11-20T00:14:03;4.57;;;2.55;;
34643;SDS011;26931;43.498;-1.506;2022-11-20T00:16:32;3.55;;;2.42;;
34643;SDS011;26931;43.498;-1.506;2022-11-20T00:19:09;4.78;;;2.47;;
34643;SDS011;26931;43.498;-1.506;2022-11-20T00:21:40;3.72;;;2.53;;
34643;SDS011;26931;43.498;-1.506;2022-11-20T00:24:08;5.95;;;2.90;;
34643;SDS011;26931;43.498;-1.506;2022-11-20T00:26:35;3.33;;;2.80;;
34643;SDS011;26931;43.498;-1.506;2022-11-20T00:29:01;5.90;;;3.10;;
34643;SDS011;26931;43.498;-1.506;2022-11-20T00:31:27;4.32;;;2.65;;
34643;SDS011;26931;43.498;-1.506;2022-11-20T00:34:07;4.25;;;2.60;;
34643;SDS011;26931;43.498;-1.506;2022-11-20T00:36:46;3.70;;;2.50;;
34643;SDS011;26931;43.498;-1.506;2022-11-20T00:39:30;7.00;;;3.13;;
34643;SDS011;26931;43.498;-1.506;2022-11-20T00:42:01;5.88;;;3.08;;
34643;SDS011;26931;43.498;-1.506;2022-11-20T00:44:27;4.80;;;2.65;;
34643;SDS011;26931;43.498;-1.506;2022-11-20T00:46:53;5.80;;;2.60;;
34643;SDS011;26931;43.498;-1.506;2022-11-20T00:49:19;6.82;;;2.70;;
34643;SDS011;26931;43.498;-1.506;2022-11-20T00:51:45;7.80;;;3.05;;
34643;SDS011;26931;43.498;-1.506;2022-11-20T00:54:10;5.10;;;2.00;;
34643;SDS011;26931;43.498;-1.506;2022-11-20T00:56:36;7.00;;;2.65;;
34643;SDS011;26931;43.498;-1.506;2022-11-20T00:59:02;5.95;;;2.55;;
34643;SDS011;26931;43.498;-1.506;2022-11-20T01:01:28;3.45;;;2.00;;
34643;SDS011;26931;43.498;-1.506;2022-11-20T01:04:06;3.05;;;2.25;;
34643;SDS011;26931;43.498;-1.506;2022-11-20T01:06:40;3.33;;;2.05;;
34643;SDS011;26931;43.498;-1.506;2022-11-20T01:09:09;6.95;;;3.70;;
34643;SDS011;26931;43.498;-1.506;2022-11-20T01:11:42;4.75;;;2.20;;
34643;SDS011;26931;43.498;-1.506;2022-11-20T01:14:10;3.85;;;1.85;;
34643;SDS011;26931;43.498;-1.506;2022-11-20T01:16:45;3.63;;;2.10;;
34643;SDS011;26931;43.498;-1.506;2022-11-20T01:19:18;5.30;;;2.28;;
34643;SDS011;26931;43.498;-1.506;2022-11-20T01:21:48;4.57;;;1.95;;
34643;SDS011;26931;43.498;-1.506;2022-11-20T01:24:16;5.35;;;2.08;;
34643;SDS011;26931;43.498;-1.506;2022-11-20T01:26:44;3.13;;;1.90;;
34643;SDS011;26931;43.498;-1.506;2022-11-20T01:29:15;5.05;;;2.38;;
34643;SDS011;26931;43.498;-1.506;2022-11-20T01:31:52;4.18;;;2.22;;
34643;SDS011;26931;43.498;-1.506;2022-11-20T01:34:18;3.85;;;2.20;;
34643;SDS011;26931;43.498;-1.506;2022-11-20T01:36:46;4.93;;;2.05;;
34643;SDS011;26931;43.498;-1.506;2022-11-20T01:39:19;3.88;;;1.92;;
34643;SDS011;26931;43.498;-1.506;2022-11-20T01:41:55;2.30;;;1.70;;
34643;SDS011;26931;43.498;-1.506;2022-11-20T01:44:56;3.22;;;1.90;;
34643;SDS011;26931;43.498;-1.506;2022-11-20T01:47:41;3.72;;;2.15;;
34643;SDS011;26931;43.498;-1.506;2022-11-20T01:50:24;4.60;;;2.42;;
34643;SDS011;26931;43.498;-1.506;2022-11-20T01:53:02;3.50;;;1.98;;
34643;SDS011;26931;43.498;-1.506;2022-11-20T01:55:36;1.98;;;1.77;;
34643;SDS011;26931;43.498;-1.506;2022-11-20T01:58:14;3.47;;;1.88;;
34643;SDS011;26931;43.498;-1.506;2022-11-20T02:00:41;3.35;;;1.77;;
34643;SDS011;26931;43.498;-1.506;2022-11-20T02:03:09;3.95;;;1.80;;
34643;SDS011;26931;43.498;-1.506;2022-11-20T02:05:41;1.85;;;1.70;;
34643;SDS011;26931;43.498;-1.506;2022-11-20T02:08:19;2.75;;;1.83;;
34643;SDS011;26931;43.498;-1.506;2022-11-20T02:11:02;4.72;;;2.00;;
34643;SDS011;26931;43.498;-1.506;2022-11-20T02:13:27;2.67;;;1.75;;
34643;SDS011;26931;43.498;-1.506;2022-11-20T02:16:11;4.78;;;1.90;;
34643;SDS011;26931;43.498;-1.506;2022-11-20T02:18:43;4.18;;;2.17;;
34643;SDS011;26931;43.498;-1.506;2022-11-20T02:21:20;2.42;;;1.50;;
34643;SDS011;26931;43.498;-1.506;2022-11-20T02:26:30;3.30;;;1.80;;
34643;SDS011;26931;43.498;-1.506;2022-11-20T02:28:58;4.05;;;2.13;;
34643;SDS011;26931;43.498;-1.506;2022-11-20T02:31:26;5.88;;;2.45;;
34643;SDS011;26931;43.498;-1.506;2022-11-20T02:33:56;3.30;;;1.83;;
34643;SDS011;26931;43.498;-1.506;2022-11-20T02:36:22;4.15;;;1.50;;
34643;SDS011;26931;43.498;-1.506;2022-11-20T02:38:51;1.60;;;1.50;;
34643;SDS011;26931;43.498;-1.506;2022-11-20T02:41:17;2.70;;;1.60;;
34643;SDS011;26931;43.498;-1.506;2022-11-20T02:43:43;2.60;;;1.70;;
34643;SDS011;26931;43.498;-1.506;2022-11-20T02:46:11;3.67;;;1.70;;
34643;SDS011;26931;43.498;-1.506;2022-11-20T02:48:43;6.85;;;2.05;;
34643;SDS011;26931;43.498;-1.506;2022-11-20T02:51:15;4.03;;;1.83;;
34643;SDS011;26931;43.498;-1.506;2022-11-20T02:53:41;3.80;;;1.88;;
34643;SDS011;26931;43.498;-1.506;2022-11-20T02:56:07;2.97;;;1.80;;
34643;SDS011;26931;43.498;-1.506;2022-11-20T02:58:32;2.83;;;2.00;;
34643;SDS011;26931;43.498;-1.506;2022-11-20T03:00:58;3.38;;;1.70;;
34643;SDS011;26931;43.498;-1.506;2022-11-20T03:03:24;3.30;;;1.90;;
34643;SDS011;26931;43.498;-1.506;2022-11-20T03:05:50;5.65;;;1.90;;
34643;SDS011;26931;43.498;-1.506;2022-11-20T03:08:15;4.72;;;2.00;;
34643;SDS011;26931;43.498;-1.506;2022-11-20T03:10:41;2.38;;;1.70;;
34643;SDS011;26931;43.498;-1.506;2022-11-20T03:13:07;2.65;;;1.88;;
34643;SDS011;26931;43.498;-1.506;2022-11-20T03:15:32;3.20;;;2.00;;
34643;SDS011;26931;43.498;-1.506;2022-11-20T03:18:00;2.05;;;1.80;;
34643;SDS011;26931;43.498;-1.506;2022-11-20T03:20:33;2.78;;;1.85;;
34643;SDS011;26931;43.498;-1.506;2022-11-20T03:22:59;4.43;;;1.60;;
34643;SDS011;26931;43.498;-1.506;2022-11-20T03:25:35;4.13;;;1.85;;
34643;SDS011;26931;43.498;-1.506;2022-11-20T03:28:03;1.58;;;1.48;;
34643;SDS011;26931;43.498;-1.506;2022-11-20T03:30:35;2.97;;;1.70;;
34643;SDS011;26931;43.498;-1.506;2022-11-20T03:33:09;2.38;;;1.60;;
34643;SDS011;26931;43.498;-1.506;2022-11-20T03:35:35;4.00;;;2.10;;
34643;SDS011;26931;43.498;-1.506;2022-11-20T03:38:01;3.90;;;1.70;;
34643;SDS011;26931;43.498;-1.506;2022-11-20T03:40:26;2.90;;;1.83;;
34643;SDS011;26931;43.498;-1.506;2022-11-20T03:42:52;2.90;;;1.70;;
34643;SDS011;26931;43.498;-1.506;2022-11-20T03:45:18;3.40;;;1.75;;
34643;SDS011;26931;43.498;-1.506;2022-11-20T03:47:44;5.85;;;1.88;;
34643;SDS011;26931;43.498;-1.506;2022-11-20T03:50:11;2.45;;;1.77;;
34643;SDS011;26931;43.498;-1.506;2022-11-20T03:52:38;2.03;;;1.67;;
34643;SDS011;26931;43.498;-1.506;2022-11-20T03:55:05;2.25;;;1.60;;
34643;SDS011;26931;43.498;-1.506;2022-11-20T03:57:32;4.60;;;1.80;;
34643;SDS011;26931;43.498;-1.506;2022-11-20T03:59:57;3.35;;;1.90;;
34643;SDS011;26931;43.498;-1.506;2022-11-20T04:02:26;2.50;;;1.60;;
34643;SDS011;26931;43.498;-1.506;2022-11-20T04:04:55;5.40;;;1.90;;
34643;SDS011;26931;43.498;-1.506;2022-11-20T04:07:22;1.95;;;1.60;;
34643;SDS011;26931;43.498;-1.506;2022-11-20T04:09:51;2.83;;;1.60;;
34643;SDS011;26931;43.498;-1.506;2022-11-20T04:12:19;3.33;;;1.65;;
34643;SDS011;26931;43.498;-1.506;2022-11-20T04:14:48;2.75;;;1.65;;
34643;SDS011;26931;43.498;-1.506;2022-11-20T04:17:22;3.17;;;1.60;;
34643;SDS011;26931;43.498;-1.506;2022-11-20T04:19:51;4.65;;;1.58;;
34643;SDS011;26931;43.498;-1.506;2022-11-20T04:22:25;3.63;;;1.70;;
34643;SDS011;26931;43.498;-1.506;2022-11-20T04:24:51;3.58;;;1.63;;
34643;SDS011;26931;43.498;-1.506;2022-11-20T04:27:17;3.10;;;1.60;;
34643;SDS011;26931;43.498;-1.506;2022-11-20T04:29:42;3.10;;;1.65;;
34643;SDS011;26931;43.498;-1.506;2022-11-20T04:32:08;2.20;;;1.70;;
34643;SDS011;26931;43.498;-1.506;2022-11-20T04:34:34;6.35;;;1.70;;
34643;SDS011;26931;43.498;-1.506;2022-11-20T04:37:06;3.70;;;1.73;;
34643;SDS011;26931;43.498;-1.506;2022-11-20T04:39:35;1.60;;;1.50;;
34643;SDS011;26931;43.498;-1.506;2022-11-20T04:42:09;2.10;;;1.40;;
34643;SDS011;26931;43.498;-1.506;2022-11-20T04:44:53;2.22;;;1.70;;
34643;SDS011;26931;43.498;-1.506;2022-11-20T04:47:19;2.53;;;1.60;;
34643;SDS011;26931;43.498;-1.506;2022-11-20T04:49:45;3.53;;;1.73;;
34643;SDS011;26931;43.498;-1.506;2022-11-20T04:52:11;5.03;;;1.77;;
34643;SDS011;26931;43.498;-1.506;2022-11-20T04:54:36;4.72;;;1.65;;
34643;SDS011;26931;43.498;-1.506;2022-11-20T04:57:06;3.33;;;1.60;;
34643;SDS011;26931;43.498;-1.506;2022-11-20T04:59:34;2.50;;;1.73;;
34643;SDS011;26931;43.498;-1.506;2022-11-20T05:02:11;3.85;;;1.50;;
34643;SDS011;26931;43.498;-1.506;2022-11-20T05:04:41;2.88;;;1.48;;
34643;SDS011;26931;43.498;-1.506;2022-11-20T05:07:15;3.35;;;1.70;;
34643;SDS011;26931;43.498;-1.506;2022-11-20T05:09:41;3.03;;;1.60;;
34643;SDS011;26931;43.498;-1.506;2022-11-20T05:12:10;3.13;;;1.50;;
34643;SDS011;26931;43.498;-1.506;2022-11-20T05:14:39;3.13;;;1.40;;
34643;SDS011;26931;43.498;-1.506;2022-11-20T05:17:05;2.65;;;1.85;;
34643;SDS011;26931;43.498;-1.506;2022-11-20T05:19:31;4.45;;;1.95;;
34643;SDS011;26931;43.498;-1.506;2022-11-20T05:21:59;2.15;;;1.55;;
34643;SDS011;26931;43.498;-1.506;2022-11-20T05:24:28;1.85;;;1.60;;
34643;SDS011;26931;43.498;-1.506;2022-11-20T05:26:53;3.33;;;1.67;;
34643;SDS011;26931;43.498;-1.506;2022-11-20T05:29:19;2.05;;;1.63;;
34643;SDS011;26931;43.498;-1.506;2022-11-20T05:31:47;4.97;;;1.65;;
34643;SDS011;26931;43.498;-1.506;2022-11-20T05:34:19;3.50;;;1.60;;
34643;SDS011;26931;43.498;-1.506;2022-11-20T05:36:45;2.15;;;1.80;;
34643;SDS011;26931;43.498;-1.506;2022-11-20T05:39:10;1.85;;;1.52;;
34643;SDS011;26931;43.498;-1.506;2022-11-20T05:41:40;2.83;;;1.40;;
34643;SDS011;26931;43.498;-1.506;2022-11-20T05:44:12;2.72;;;1.65;;
34643;SDS011;26931;43.498;-1.506;2022-11-20T05:46:38;3.25;;;1.90;;
34643;SDS011;26931;43.498;-1.506;2022-11-20T05:49:06;2.65;;;1.88;;
34643;SDS011;26931;43.498;-1.506;2022-11-20T05:51:38;3.35;;;1.90;;
34643;SDS011;26931;43.498;-1.506;2022-11-20T05:54:04;3.17;;;2.05;;
34643;SDS011;26931;43.498;-1.506;2022-11-20T05:56:30;2.72;;;1.95;;
34643;SDS011;26931;43.498;-1.506;2022-11-20T05:58:58;2.22;;;1.70;;
34643;SDS011;26931;43.498;-1.506;2022-11-20T06:01:32;3.22;;;1.73;;
34643;SDS011;26931;43.498;-1.506;2022-11-20T06:04:07;2.60;;;1.80;;
34643;SDS011;26931;43.498;-1.506;2022-11-20T06:06:39;5.20;;;2.97;;
34643;SDS011;26931;43.498;-1.506;2022-11-20T06:09:14;10.63;;;5.18;;
34643;SDS011;26931;43.498;-1.506;2022-11-20T06:11:44;8.20;;;3.88;;
34643;SDS011;26931;43.498;-1.506;2022-11-20T06:14:13;5.28;;;3.33;;
34643;SDS011;26931;43.498;-1.506;2022-11-20T06:16:42;4.43;;;3.00;;
34643;SDS011;26931;43.498;-1.506;2022-11-20T06:19:08;5.03;;;2.53;;
34643;SDS011;26931;43.498;-1.506;2022-11-20T06:21:34;6.47;;;4.65;;
34643;SDS011;26931;43.498;-1.506;2022-11-20T06:23:59;7.32;;;4.13;;
34643;SDS011;26931;43.498;-1.506;2022-11-20T06:26:26;5.50;;;3.45;;
34643;SDS011;26931;43.498;-1.506;2022-11-20T06:28:53;5.30;;;3.40;;
34643;SDS011;26931;43.498;-1.506;2022-11-20T06:31:23;4.53;;;2.97;;
34643;SDS011;26931;43.498;-1.506;2022-11-20T06:33:56;6.57;;;3.50;;
34643;SDS011;26931;43.498;-1.506;2022-11-20T06:36:27;3.58;;;2.30;;
34643;SDS011;26931;43.498;-1.506;2022-11-20T06:38:57;4.20;;;2.08;;
34643;SDS011;26931;43.498;-1.506;2022-11-20T06:41:26;4.43;;;2.30;;
34643;SDS011;26931;43.498;-1.506;2022-11-20T06:44:00;4.07;;;2.70;;
34643;SDS011;26931;43.498;-1.506;2022-11-20T06:46:31;3.58;;;2.38;;
34643;SDS011;26931;43.498;-1.506;2022-11-20T06:49:02;2.60;;;2.40;;
34643;SDS011;26931;43.498;-1.506;2022-11-20T06:51:29;4.07;;;2.17;;
34643;SDS011;26931;43.498;-1.506;2022-11-20T06:53:58;2.83;;;2.15;;
34643;SDS011;26931;43.498;-1.506;2022-11-20T06:56:29;4.75;;;2.20;;
34643;SDS011;26931;43.498;-1.506;2022-11-20T06:58:57;5.10;;;2.13;;
34643;SDS011;26931;43.498;-1.506;2022-11-20T07:01:23;4.63;;;2.40;;
34643;SDS011;26931;43.498;-1.506;2022-11-20T07:03:51;2.58;;;2.08;;
34643;SDS011;26931;43.498;-1.506;2022-11-20T07:06:20;6.40;;;2.50;;
34643;SDS011;26931;43.498;-1.506;2022-11-20T07:08:46;5.72;;;2.47;;
34643;SDS011;26931;43.498;-1.506;2022-11-20T07:11:12;3.45;;;2.42;;
34643;SDS011;26931;43.498;-1.506;2022-11-20T07:13:38;4.45;;;2.70;;
34643;SDS011;26931;43.498;-1.506;2022-11-20T07:16:04;2.40;;;2.20;;
34643;SDS011;26931;43.498;-1.506;2022-11-20T07:18:32;5.28;;;4.65;;
34643;SDS011;26931;43.498;-1.506;2022-11-20T07:21:05;5.70;;;4.75;;
34643;SDS011;26931;43.498;-1.506;2022-11-20T07:23:32;7.53;;;4.25;;
34643;SDS011;26931;43.498;-1.506;2022-11-20T07:26:01;5.40;;;3.33;;
34643;SDS011;26931;43.498;-1.506;2022-11-20T07:28:32;4.97;;;3.50;;
34643;SDS011;26931;43.498;-1.506;2022-11-20T07:31:06;3.15;;;2.85;;
34643;SDS011;26931;43.498;-1.506;2022-11-20T07:33:40;6.40;;;2.72;;
34643;SDS011;26931;43.498;-1.506;2022-11-20T07:36:06;3.15;;;2.33;;
34643;SDS011;26931;43.498;-1.506;2022-11-20T07:38:33;2.28;;;2.05;;
34643;SDS011;26931;43.498;-1.506;2022-11-20T07:41:03;1.95;;;1.85;;
34643;SDS011;26931;43.498;-1.506;2022-11-20T07:43:30;2.40;;;2.00;;
34643;SDS011;26931;43.498;-1.506;2022-11-20T07:45:56;2.42;;;2.22;;
34643;SDS011;26931;43.498;-1.506;2022-11-20T07:48:23;2.35;;;1.80;;
34643;SDS011;26931;43.498;-1.506;2022-11-20T07:50:49;2.42;;;2.22;;
34643;SDS011;26931;43.498;-1.506;2022-11-20T07:53:15;5.07;;;2.75;;
34643;SDS011;26931;43.498;-1.506;2022-11-20T07:55:46;6.13;;;2.67;;
34643;SDS011;26931;43.498;-1.506;2022-11-20T07:58:12;2.75;;;2.50;;
34643;SDS011;26931;43.498;-1.506;2022-11-20T08:00:38;5.10;;;2.90;;
34643;SDS011;26931;43.498;-1.506;2022-11-20T08:03:05;6.20;;;3.00;;
34643;SDS011;26931;43.498;-1.506;2022-11-20T08:05:31;5.10;;;2.75;;
34643;SDS011;26931;43.498;-1.506;2022-11-20T08:07:57;6.13;;;3.17;;
34643;SDS011;26931;43.498;-1.506;2022-11-20T08:10:23;6.43;;;4.25;;
34643;SDS011;26931;43.498;-1.506;2022-11-20T08:12:49;15.82;;;4.97;;
34643;SDS011;26931;43.498;-1.506;2022-11-20T08:15:34;11.88;;;4.22;;
34643;SDS011;26931;43.498;-1.506;2022-11-20T08:18:05;13.65;;;4.22;;
34643;SDS011;26931;43.498;-1.506;2022-11-20T08:20:33;13.15;;;3.75;;
34643;SDS011;26931;43.498;-1.506;2022-11-20T08:23:00;10.88;;;4.25;;
34643;SDS011;26931;43.498;-1.506;2022-11-20T08:25:30;8.30;;;3.85;;
34643;SDS011;26931;43.498;-1.506;2022-11-20T08:27:57;8.52;;;3.30;;
34643;SDS011;26931;43.498;-1.506;2022-11-20T08:30:26;3.03;;;2.08;;
34643;SDS011;26931;43.498;-1.506;2022-11-20T08:32:52;4.00;;;2.65;;
34643;SDS011;26931;43.498;-1.506;2022-11-20T08:35:19;3.40;;;2.58;;
34643;SDS011;26931;43.498;-1.506;2022-11-20T08:37:46;3.63;;;2.53;;
34643;SDS011;26931;43.498;-1.506;2022-11-20T08:40:12;3.22;;;2.25;;
34643;SDS011;26931;43.498;-1.506;2022-11-20T08:42:45;4.28;;;2.28;;
34643;SDS011;26931;43.498;-1.506;2022-11-20T08:45:13;4.50;;;2.47;;
34643;SDS011;26931;43.498;-1.506;2022-11-20T08:47:40;3.40;;;2.75;;
34643;SDS011;26931;43.498;-1.506;2022-11-20T08:50:07;2.58;;;2.38;;
34643;SDS011;26931;43.498;-1.506;2022-11-20T08:52:33;2.55;;;2.35;;
34643;SDS011;26931;43.498;-1.506;2022-11-20T08:55:00;3.53;;;2.60;;
34643;SDS011;26931;43.498;-1.506;2022-11-20T08:57:25;4.43;;;2.40;;
34643;SDS011;26931;43.498;-1.506;2022-11-20T08:59:51;3.40;;;2.10;;
34643;SDS011;26931;43.498;-1.506;2022-11-20T09:02:17;3.30;;;2.65;;
34643;SDS011;26931;43.498;-1.506;2022-11-20T09:04:43;2.83;;;2.22;;
34643;SDS011;26931;43.498;-1.506;2022-11-20T09:07:09;2.17;;;1.95;;
34643;SDS011;26931;43.498;-1.506;2022-11-20T09:09:35;4.15;;;2.28;;
34643;SDS011;26931;43.498;-1.506;2022-11-20T09:12:01;2.45;;;1.98;;
34643;SDS011;26931;43.498;-1.506;2022-11-20T09:14:27;1.80;;;1.70;;
34643;SDS011;26931;43.498;-1.506;2022-11-20T09:16:55;4.35;;;2.28;;
34643;SDS011;26931;43.498;-1.506;2022-11-20T09:19:21;7.55;;;2.00;;
34643;SDS011;26931;43.498;-1.506;2022-11-20T09:21:49;2.78;;;1.85;;
34643;SDS011;26931;43.498;-1.506;2022-11-20T09:24:15;2.53;;;2.20;;
34643;SDS011;26931;43.498;-1.506;2022-11-20T09:26:41;4.43;;;2.08;;
34643;SDS011;26931;43.498;-1.506;2022-11-20T09:29:07;4.15;;;2.28;;
34643;SDS011;26931;43.498;-1.506;2022-11-20T09:31:33;3.88;;;2.38;;
34643;SDS011;26931;43.498;-1.506;2022-11-20T09:33:59;8.18;;;2.60;;
34643;SDS011;26931;43.498;-1.506;2022-11-20T09:36:25;8.00;;;2.88;;
34643;SDS011;26931;43.498;-1.506;2022-11-20T09:38:51;6.57;;;2.95;;
34643;SDS011;26931;43.498;-1.506;2022-11-20T09:44:25;8.10;;;3.50;;
34643;SDS011;26931;43.498;-1.506;2022-11-20T09:47:11;8.85;;;3.88;;
34643;SDS011;26931;43.498;-1.506;2022-11-20T09:49:51;10.23;;;3.90;;
34643;SDS011;26931;43.498;-1.506;2022-11-20T09:55:30;15.30;;;4.13;;
34643;SDS011;26931;43.498;-1.506;2022-11-20T09:57:56;13.73;;;4.28;;
34643;SDS011;26931;43.498;-1.506;2022-11-20T10:00:24;13.15;;;4.65;;
34643;SDS011;26931;43.498;-1.506;2022-11-20T10:05:23;14.32;;;4.75;;
34643;SDS011;26931;43.498;-1.506;2022-11-20T10:11:28;13.13;;;3.40;;
34643;SDS011;26931;43.498;-1.506;2022-11-20T10:14:15;14.80;;;3.92;;
34643;SDS011;26931;43.498;-1.506;2022-11-20T10:17:19;18.48;;;5.20;;
34643;SDS011;26931;43.498;-1.506;2022-11-20T10:22:22;12.68;;;4.88;;
34643;SDS011;26931;43.498;-1.506;2022-11-20T10:25:04;17.40;;;5.07;;
34643;SDS011;26931;43.498;-1.506;2022-11-20T10:27:42;13.90;;;5.05;;
34643;SDS011;26931;43.498;-1.506;2022-11-20T10:30:35;18.77;;;5.30;;
34643;SDS011;26931;43.498;-1.506;2022-11-20T10:33:19;15.63;;;5.00;;
34643;SDS011;26931;43.498;-1.506;2022-11-20T10:36:08;20.48;;;5.90;;
34643;SDS011;26931;43.498;-1.506;2022-11-20T10:39:30;14.35;;;4.45;;
34643;SDS011;26931;43.498;-1.506;2022-11-20T10:41:42;20.38;;;6.70;;
34643;SDS011;26931;43.498;-1.506;2022-11-20T10:44:12;28.35;;;7.00;;
34643;SDS011;26931;43.498;-1.506;2022-11-20T10:47:01;25.73;;;7.18;;
34643;SDS011;26931;43.498;-1.506;2022-11-20T10:49:29;37.33;;;8.02;;
34643;SDS011;26931;43.498;-1.506;2022-11-20T10:54:49;45.83;;;9.60;;
34643;SDS011;26931;43.498;-1.506;2022-11-20T10:57:31;44.10;;;9.82;;
34643;SDS011;26931;43.498;-1.506;2022-11-20T11:00:09;44.55;;;9.57;;
34643;SDS011;26931;43.498;-1.506;2022-11-20T11:02:39;36.78;;;8.00;;
34643;SDS011;26931;43.498;-1.506;2022-11-20T11:08:03;39.95;;;7.53;;
34643;SDS011;26931;43.498;-1.506;2022-11-20T11:10:50;39.53;;;8.20;;
34643;SDS011;26931;43.498;-1.506;2022-11-20T11:13:23;36.75;;;7.68;;
34643;SDS011;26931;43.498;-1.506;2022-11-20T11:18:27;29.05;;;7.57;;
34643;SDS011;26931;43.498;-1.506;2022-11-20T11:20:55;37.03;;;7.70;;
34643;SDS011;26931;43.498;-1.506;2022-11-20T11:23:32;35.28;;;7.40;;
34643;SDS011;26931;43.498;-1.506;2022-11-20T11:28:56;23.52;;;6.10;;
34643;SDS011;26931;43.498;-1.506;2022-11-20T11:31:26;33.72;;;6.70;;
34643;SDS011;26931;43.498;-1.506;2022-11-20T11:34:04;24.90;;;6.07;;
34643;SDS011;26931;43.498;-1.506;2022-11-20T11:36:31;25.38;;;6.38;;
34643;SDS011;26931;43.498;-1.506;2022-11-20T11:39:00;23.73;;;6.15;;
34643;SDS011;26931;43.498;-1.506;2022-11-20T11:41:28;27.13;;;6.00;;
34643;SDS011;26931;43.498;-1.506;2022-11-20T11:44:14;36.50;;;6.57;;
34643;SDS011;26931;43.498;-1.506;2022-11-20T11:47:04;26.50;;;5.60;;
34643;SDS011;26931;43.498;-1.506;2022-11-20T11:49:33;22.65;;;5.13;;
34643;SDS011;26931;43.498;-1.506;2022-11-20T11:52:14;23.17;;;4.57;;
34643;SDS011;26931;43.498;-1.506;2022-11-20T11:54:49;23.02;;;5.20;;
34643;SDS011;26931;43.498;-1.506;2022-11-20T12:02:31;12.40;;;3.40;;
34643;SDS011;26931;43.498;-1.506;2022-11-20T12:07:59;7.40;;;2.92;;
34643;SDS011;26931;43.498;-1.506;2022-11-20T12:11:15;12.85;;;3.10;;
34643;SDS011;26931;43.498;-1.506;2022-11-20T12:14:33;14.15;;;3.50;;
34643;SDS011;26931;43.498;-1.506;2022-11-20T12:16:49;11.43;;;2.92;;
34643;SDS011;26931;43.498;-1.506;2022-11-20T12:19:17;15.90;;;3.47;;
34643;SDS011;26931;43.498;-1.506;2022-11-20T12:30:22;14.80;;;3.60;;
34643;SDS011;26931;43.498;-1.506;2022-11-20T12:33:02;14.52;;;3.67;;
34643;SDS011;26931;43.498;-1.506;2022-11-20T12:35:44;14.45;;;3.60;;
34643;SDS011;26931;43.498;-1.506;2022-11-20T12:41:06;9.23;;;2.63;;
34643;SDS011;26931;43.498;-1.506;2022-11-20T12:47:16;12.20;;;2.83;;
34643;SDS011;26931;43.498;-1.506;2022-11-20T12:50:01;12.85;;;3.58;;
34643;SDS011;26931;43.498;-1.506;2022-11-20T12:52:53;10.73;;;3.03;;
34643;SDS011;26931;43.498;-1.506;2022-11-20T12:58:08;14.73;;;3.22;;
34643;SDS011;26931;43.498;-1.506;2022-11-20T13:00:53;11.98;;;3.35;;
34643;SDS011;26931;43.498;-1.506;2022-11-20T13:04:09;11.75;;;3.30;;
34643;SDS011;26931;43.498;-1.506;2022-11-20T13:06:46;12.10;;;3.67;;
34643;SDS011;26931;43.498;-1.506;2022-11-20T13:09:15;12.20;;;3.20;;
34643;SDS011;26931;43.498;-1.506;2022-11-20T13:11:46;13.52;;;3.78;;
34643;SDS011;26931;43.498;-1.506;2022-11-20T13:20:05;11.45;;;3.33;;
34643;SDS011;26931;43.498;-1.506;2022-11-20T13:22:44;17.60;;;3.80;;
34643;SDS011;26931;43.498;-1.506;2022-11-20T13:25:24;15.02;;;3.47;;
34643;SDS011;26931;43.498;-1.506;2022-11-20T13:27:54;17.05;;;3.72;;
34643;SDS011;26931;43.498;-1.506;2022-11-20T13:30:23;13.77;;;3.22;;
34643;SDS011;26931;43.498;-1.506;2022-11-20T13:32:54;13.88;;;4.05;;
34643;SDS011;26931;43.498;-1.506;2022-11-20T13:35:33;10.10;;;3.20;;
34643;SDS011;26931;43.498;-1.506;2022-11-20T13:38:09;14.13;;;3.45;;
34643;SDS011;26931;43.498;-1.506;2022-11-20T13:40:37;11.68;;;2.80;;
34643;SDS011;26931;43.498;-1.506;2022-11-20T13:43:19;11.50;;;3.20;;
34643;SDS011;26931;43.498;-1.506;2022-11-20T13:46:00;12.63;;;3.88;;
34643;SDS011;26931;43.498;-1.506;2022-11-20T13:48:32;15.93;;;4.07;;
34643;SDS011;26931;43.498;-1.506;2022-11-20T13:51:07;23.30;;;4.75;;
34643;SDS011;26931;43.498;-1.506;2022-11-20T13:59:40;19.33;;;4.20;;
34643;SDS011;26931;43.498;-1.506;2022-11-20T14:02:21;20.52;;;5.03;;
34643;SDS011;26931;43.498;-1.506;2022-11-20T14:04:51;20.60;;;4.70;;
34643;SDS011;26931;43.498;-1.506;2022-11-20T14:07:23;16.50;;;3.75;;
34643;SDS011;26931;43.498;-1.506;2022-11-20T14:09:53;17.55;;;3.58;;
34643;SDS011;26931;43.498;-1.506;2022-11-20T14:12:22;10.38;;;2.97;;
34643;SDS011;26931;43.498;-1.506;2022-11-20T14:14:55;18.08;;;4.72;;
34643;SDS011;26931;43.498;-1.506;2022-11-20T14:17:23;24.10;;;5.25;;
34643;SDS011;26931;43.498;-1.506;2022-11-20T14:19:51;23.00;;;5.28;;
34643;SDS011;26931;43.498;-1.506;2022-11-20T14:22:22;19.95;;;4.82;;
34643;SDS011;26931;43.498;-1.506;2022-11-20T14:25:35;17.10;;;4.50;;
34643;SDS011;26931;43.498;-1.506;2022-11-20T14:27:42;17.17;;;4.00;;
34643;SDS011;26931;43.498;-1.506;2022-11-20T14:30:12;18.70;;;4.57;;
34643;SDS011;26931;43.498;-1.506;2022-11-20T14:32:44;18.67;;;4.53;;
34643;SDS011;26931;43.498;-1.506;2022-11-20T14:35:23;16.17;;;5.68;;
34643;SDS011;26931;43.498;-1.506;2022-11-20T14:37:54;29.02;;;6.60;;
34643;SDS011;26931;43.498;-1.506;2022-11-20T14:40:22;25.52;;;6.10;;
34643;SDS011;26931;43.498;-1.506;2022-11-20T14:42:56;24.40;;;5.90;;
34643;SDS011;26931;43.498;-1.506;2022-11-20T14:45:24;23.20;;;5.57;;
34643;SDS011;26931;43.498;-1.506;2022-11-20T14:47:52;23.08;;;6.38;;
34643;SDS011;26931;43.498;-1.506;2022-11-20T14:50:25;29.73;;;7.35;;
34643;SDS011;26931;43.498;-1.506;2022-11-20T14:52:53;30.13;;;6.22;;
34643;SDS011;26931;43.498;-1.506;2022-11-20T14:55:26;33.53;;;7.53;;
34643;SDS011;26931;43.498;-1.506;2022-11-20T14:58:06;26.38;;;6.70;;
34643;SDS011;26931;43.498;-1.506;2022-11-20T15:01:00;25.55;;;6.63;;
34643;SDS011;26931;43.498;-1.506;2022-11-20T15:03:34;25.40;;;7.18;;
34643;SDS011;26931;43.498;-1.506;2022-11-20T15:06:02;21.15;;;5.65;;
34643;SDS011;26931;43.498;-1.506;2022-11-20T15:08:29;29.70;;;5.13;;
34643;SDS011;26931;43.498;-1.506;2022-11-20T15:10:55;21.08;;;5.78;;
34643;SDS011;26931;43.498;-1.506;2022-11-20T15:13:39;24.48;;;5.82;;
34643;SDS011;26931;43.498;-1.506;2022-11-20T15:16:18;20.67;;;5.15;;
34643;SDS011;26931;43.498;-1.506;2022-11-20T15:18:47;19.42;;;4.75;;
34643;SDS011;26931;43.498;-1.506;2022-11-20T15:21:14;23.88;;;5.63;;
34643;SDS011;26931;43.498;-1.506;2022-11-20T15:23:41;23.35;;;5.82;;
34643;SDS011;26931;43.498;-1.506;2022-11-20T15:26:08;20.08;;;5.53;;
34643;SDS011;26931;43.498;-1.506;2022-11-20T15:28:41;21.40;;;5.70;;
34643;SDS011;26931;43.498;-1.506;2022-11-20T15:31:12;27.33;;;5.82;;
34643;SDS011;26931;43.498;-1.506;2022-11-20T15:33:39;23.90;;;4.90;;
34643;SDS011;26931;43.498;-1.506;2022-11-20T15:36:05;25.25;;;5.68;;
34643;SDS011;26931;43.498;-1.506;2022-11-20T15:38:31;19.98;;;5.63;;
34643;SDS011;26931;43.498;-1.506;2022-11-20T15:40:57;22.45;;;5.18;;
34643;SDS011;26931;43.498;-1.506;2022-11-20T15:43:23;15.73;;;4.55;;
34643;SDS011;26931;43.498;-1.506;2022-11-20T15:45:59;18.23;;;5.28;;
34643;SDS011;26931;43.498;-1.506;2022-11-20T15:48:34;18.65;;;4.65;;
34643;SDS011;26931;43.498;-1.506;2022-11-20T15:53:35;22.42;;;5.18;;
34643;SDS011;26931;43.498;-1.506;2022-11-20T15:56:06;16.23;;;4.72;;
34643;SDS011;26931;43.498;-1.506;2022-11-20T15:58:36;19.77;;;4.63;;
34643;SDS011;26931;43.498;-1.506;2022-11-20T16:01:02;20.33;;;4.93;;
34643;SDS011;26931;43.498;-1.506;2022-11-20T16:03:28;18.10;;;4.80;;